Terminal Aerodrome Forecast
Issued by NWS

Home | Current Version | Previous Version | Graphics & Text | Print | Product List | Glossary On
Versions: 1 2 3 4 5 6 7 8 9 10 11 12 13 14 15 16 17 18
124
FTUS43 KABR 200901 AAA
TAFPIR
TAF AMD
KPIR 200901Z 2009/2106 01006KT P6SM VCSH BKN100
      TEMPO 2009/2010 TS BKN080CB
     FM201400 03009KT P6SM BKN100
     FM210500 09006KT P6SM FEW250=

USA.gov is the U.S. government's official web portal to all federal, state and local government web resources and services.